Time;durP1;ratioP1;P1;durP2;ratioP2;P2;SDS_P1;SDS_P2;PMS_P1;PMS_P2;Temp;Humidity;BMP_temperature;BMP_pressure;BME280_temperature;BME280_humidity;BME280_pressure;Samples;Min_cycle;Max_cycle;Signal;HPM_P1;HPM_P2
2023/05/15 00:00:18;;;;;;;4.10;3.80;;;;;;;11.36;100.00;99750.81;5086282;28;20268;-70
2023/05/15 00:02:44;;;;;;;4.07;3.67;;;;;;;11.37;100.00;99746.50;5111670;28;20654;-70
2023/05/15 00:05:09;;;;;;;4.10;3.23;;;;;;;11.31;100.00;99755.41;5097740;28;20723;-70
2023/05/15 00:07:35;;;;;;;4.40;3.43;;;;;;;11.26;100.00;99752.31;5092157;28;20188;-69
2023/05/15 00:10:01;;;;;;;5.33;3.40;;;;;;;11.27;100.00;99752.19;5071033;28;20207;-69
2023/05/15 00:12:26;;;;;;;4.27;3.87;;;;;;;11.28;100.00;99740.16;5081146;28;20231;-69
2023/05/15 00:14:51;;;;;;;3.70;3.40;;;;;;;11.27;100.00;99746.25;5101078;28;20549;-69
2023/05/15 00:17:17;;;;;;;4.07;3.43;;;;;;;11.25;100.00;99751.50;5091724;28;20187;-69
2023/05/15 00:19:42;;;;;;;3.90;3.60;;;;;;;11.17;100.00;99751.13;5087260;28;20654;-69
2023/05/15 00:22:07;;;;;;;3.73;3.43;;;;;;;11.14;100.00;99754.72;5090418;28;20230;-70
2023/05/15 00:24:33;;;;;;;3.97;3.30;;;;;;;11.15;100.00;99747.84;5115708;28;20183;-70
2023/05/15 00:26:59;;;;;;;3.60;3.30;;;;;;;11.18;100.00;99749.41;5113032;28;20180;-70
2023/05/15 00:29:25;;;;;;;5.57;3.53;;;;;;;11.15;100.00;99753.00;5103012;28;20294;-70
2023/05/15 00:31:50;;;;;;;4.27;3.30;;;;;;;10.92;100.00;99742.38;5118586;27;20310;-70
2023/05/15 00:34:16;;;;;;;4.30;4.00;;;;;;;11.04;100.00;99748.50;5089332;28;20171;-69
2023/05/15 00:36:41;;;;;;;3.77;3.53;;;;;;;11.02;100.00;99742.63;5095878;28;20896;-70
2023/05/15 00:39:06;;;;;;;3.63;3.33;;;;;;;10.92;100.00;99744.94;5095788;28;20263;-69
2023/05/15 00:41:33;;;;;;;3.97;3.67;;;;;;;10.76;100.00;99745.06;5097644;28;20223;-69
2023/05/15 00:44:00;;;;;;;4.13;3.53;;;;;;;10.74;100.00;99748.63;5098943;28;20184;-69
2023/05/15 00:46:30;;;;;;;3.83;3.53;;;;;;;10.74;100.00;99746.06;5108117;28;20238;-70
2023/05/15 00:48:56;;;;;;;3.50;3.20;;;;;;;10.70;100.00;99735.13;5060481;28;20238;-70
2023/05/15 00:51:22;;;;;;;4.53;4.10;;;;;;;10.65;100.00;99745.72;5082118;28;20235;-70
2023/05/15 00:53:51;;;;;;;3.80;3.47;;;;;;;10.50;100.00;99736.34;5099896;28;20490;-70
2023/05/15 00:56:17;;;;;;;6.60;3.80;;;;;;;10.62;100.00;99735.59;5095357;28;20526;-70
2023/05/15 00:58:45;;;;;;;6.13;3.83;;;;;;;10.58;100.00;99739.28;5101153;28;20248;-70
2023/05/15 01:01:10;;;;;;;3.77;3.47;;;;;;;10.52;100.00;99733.69;5083511;27;20214;-70
2023/05/15 01:03:36;;;;;;;5.60;4.13;;;;;;;10.48;100.00;99736.44;5089653;28;20176;-70
2023/05/15 01:06:01;;;;;;;3.83;3.53;;;;;;;10.50;100.00;99733.78;5099473;28;20182;-69
2023/05/15 01:08:42;;;;;;;4.20;3.80;;;;;;;10.44;100.00;99729.00;5114771;28;20605;-69
2023/05/15 01:11:09;;;;;;;4.73;3.67;;;;;;;10.39;100.00;99724.13;5113289;27;20230;-69
2023/05/15 01:13:34;;;;;;;3.97;3.40;;;;;;;10.38;100.00;99731.94;5101030;28;20188;-69
2023/05/15 01:15:59;;;;;;;3.90;3.60;;;;;;;10.37;100.00;99728.56;5108944;27;20175;-69
2023/05/15 01:18:30;;;;;;;4.07;3.67;;;;;;;10.33;100.00;99724.47;5099531;28;20582;-69
2023/05/15 01:21:05;;;;;;;4.43;3.57;;;;;;;10.25;100.00;99722.34;5080891;27;20229;-69
2023/05/15 01:23:49;;;;;;;5.30;3.80;;;;;;;10.15;100.00;99722.06;5094100;28;20218;-69
2023/05/15 01:26:34;;;;;;;5.47;3.87;;;;;;;10.16;100.00;99717.78;5088466;28;20176;-68
2023/05/15 01:29:16;;;;;;;4.23;3.83;;;;;;;10.11;100.00;99719.75;5094557;28;20184;-69
2023/05/15 01:31:48;;;;;;;5.57;3.27;;;;;;;10.25;100.00;99716.41;5097198;28;20356;-68
2023/05/15 01:34:17;;;;;;;3.37;3.10;;;;;;;10.17;100.00;99716.81;5095486;28;20176;-69
2023/05/15 01:36:58;;;;;;;5.20;3.77;;;;;;;10.17;100.00;99715.09;5102262;28;20180;-69
2023/05/15 01:39:27;;;;;;;4.00;3.70;;;;;;;10.08;100.00;99722.53;5095331;28;20187;-70
2023/05/15 01:42:06;;;;;;;5.43;3.50;;;;;;;9.97;100.00;99721.41;5099567;28;20239;-69
2023/05/15 01:44:40;;;;;;;3.67;3.37;;;;;;;10.07;100.00;99726.00;5097033;28;20582;-70
2023/05/15 01:47:11;;;;;;;4.00;3.70;;;;;;;10.09;100.00;99722.41;5099672;28;20579;-70
2023/05/15 01:49:38;;;;;;;4.23;3.80;;;;;;;10.17;100.00;99721.97;5094375;28;20273;-70
2023/05/15 01:52:12;;;;;;;5.03;3.30;;;;;;;10.15;100.00;99718.69;5082258;28;20674;-69
2023/05/15 01:54:38;;;;;;;3.87;3.57;;;;;;;10.13;100.00;99721.34;5084176;28;20196;-70
2023/05/15 01:57:06;;;;;;;3.90;3.60;;;;;;;9.96;100.00;99727.47;5111749;28;20235;-69
2023/05/15 01:59:32;;;;;;;4.20;3.63;;;;;;;9.82;100.00;99730.00;5094282;28;20590;-70
2023/05/15 02:01:58;;;;;;;4.13;3.83;;;;;;;9.92;100.00;99727.72;5081648;27;20239;-70
2023/05/15 02:04:25;;;;;;;4.87;3.73;;;;;;;9.85;100.00;99722.94;5106458;27;20199;-70
2023/05/15 02:06:52;;;;;;;4.30;3.93;;;;;;;9.91;100.00;99723.50;5106324;28;20195;-70
2023/05/15 02:09:19;;;;;;;4.10;3.80;;;;;;;9.91;100.00;99720.91;5094138;28;20196;-70
2023/05/15 02:11:45;;;;;;;3.70;3.40;;;;;;;9.90;100.00;99717.53;5089041;28;20655;-70
2023/05/15 02:14:12;;;;;;;4.10;3.80;;;;;;;9.74;100.00;99715.03;5095826;28;20203;-70
2023/05/15 02:16:37;;;;;;;4.00;3.70;;;;;;;9.81;100.00;99713.75;5096923;28;20191;-69
2023/05/15 02:19:02;;;;;;;5.73;3.97;;;;;;;9.81;100.00;99713.75;5075944;28;20180;-70
2023/05/15 02:21:28;;;;;;;4.33;4.03;;;;;;;9.71;100.00;99710.03;5094936;28;20223;-70
2023/05/15 02:23:53;;;;;;;4.20;3.80;;;;;;;9.62;100.00;99713.16;5080157;28;20189;-70
2023/05/15 02:26:24;;;;;;;4.80;4.40;;;;;;;9.66;100.00;99714.63;5092611;28;20267;-69
2023/05/15 02:28:55;;;;;;;4.30;3.93;;;;;;;9.62;100.00;99711.41;5093341;28;20211;-69
2023/05/15 02:31:52;;;;;;;4.20;3.90;;;;;;;9.47;100.00;99713.09;5094552;27;20210;-69
2023/05/15 02:34:38;;;;;;;4.10;3.80;;;;;;;9.37;100.00;99722.22;5076443;28;20549;-69
2023/05/15 02:37:09;;;;;;;4.83;3.73;;;;;;;9.41;100.00;99723.72;5090201;28;20582;-69
2023/05/15 02:39:36;;;;;;;5.37;3.97;;;;;;;9.28;100.00;99723.56;5078068;28;20168;-70
2023/05/15 02:42:01;;;;;;;6.47;4.27;;;;;;;9.27;100.00;99727.03;5098757;27;20720;-69
2023/05/15 02:44:28;;;;;;;4.27;3.97;;;;;;;9.30;100.00;99726.03;5095702;28;20192;-70
2023/05/15 02:46:53;;;;;;;4.90;4.40;;;;;;;9.38;100.00;99726.47;5091450;28;20285;-70
2023/05/15 02:49:19;;;;;;;4.77;4.37;;;;;;;9.36;100.00;99729.13;5082334;28;20663;-69
2023/05/15 02:51:45;;;;;;;4.30;4.00;;;;;;;9.35;100.00;99726.63;5079417;28;20302;-69
2023/05/15 02:54:10;;;;;;;4.40;4.00;;;;;;;9.25;100.00;99734.00;5056551;28;21012;-69
2023/05/15 02:56:35;;;;;;;4.80;4.40;;;;;;;9.30;100.00;99732.03;5095066;28;20179;-69
2023/05/15 02:59:01;;;;;;;4.40;4.10;;;;;;;9.28;100.00;99733.00;5097996;28;20190;-69
2023/05/15 03:01:26;;;;;;;5.50;4.43;;;;;;;9.10;100.00;99722.81;5083210;28;20227;-69
2023/05/15 03:03:51;;;;;;;4.63;4.20;;;;;;;9.13;100.00;99725.25;5082693;28;20183;-69
2023/05/15 03:06:17;;;;;;;4.67;4.27;;;;;;;9.16;100.00;99730.19;5094052;28;20175;-70
2023/05/15 03:08:43;;;;;;;4.93;4.13;;;;;;;9.16;100.00;99729.38;5112306;28;20654;-70
2023/05/15 03:11:08;;;;;;;4.83;4.33;;;;;;;9.16;100.00;99724.25;5101195;28;20231;-70
2023/05/15 03:13:33;;;;;;;5.70;4.37;;;;;;;9.12;100.00;99717.63;5099671;28;20241;-69
2023/05/15 03:15:58;;;;;;;4.80;4.27;;;;;;;9.10;100.00;99717.69;5070888;28;20229;-69
2023/05/15 03:18:24;;;;;;;5.43;5.03;;;;;;;9.06;100.00;99720.53;5101002;28;21507;-69
2023/05/15 03:20:51;;;;;;;5.00;4.60;;;;;;;9.07;100.00;99722.16;5065916;28;20231;-70
2023/05/15 03:23:16;;;;;;;5.17;4.67;;;;;;;8.99;100.00;99718.31;5101607;28;20215;-70
2023/05/15 03:25:42;;;;;;;6.57;4.80;;;;;;;8.97;100.00;99716.72;5091951;28;20183;-70
2023/05/15 03:28:07;;;;;;;5.13;4.57;;;;;;;9.00;100.00;99713.97;5091981;28;20199;-68
2023/05/15 03:30:32;;;;;;;5.00;4.60;;;;;;;8.99;100.00;99717.47;5065267;28;20700;-69
2023/05/15 03:32:58;;;;;;;5.63;4.90;;;;;;;9.00;100.00;99716.56;5103206;28;20248;-70
2023/05/15 03:35:24;;;;;;;5.80;5.30;;;;;;;8.95;100.00;99715.97;5079953;28;20541;-70
2023/05/15 03:37:50;;;;;;;4.97;4.50;;;;;;;8.88;100.00;99713.75;5096854;28;20548;-70
2023/05/15 03:40:15;;;;;;;5.40;4.97;;;;;;;8.87;100.00;99713.84;5065243;28;20233;-70
2023/05/15 03:42:40;;;;;;;5.03;4.63;;;;;;;8.92;100.00;99718.69;5107139;28;20183;-70
2023/05/15 03:45:06;;;;;;;5.17;4.67;;;;;;;8.93;100.00;99710.94;5090769;28;20172;-69
2023/05/15 03:47:32;;;;;;;6.03;5.00;;;;;;;8.97;100.00;99714.97;5092790;28;20214;-69
2023/05/15 03:49:57;;;;;;;5.77;4.80;;;;;;;8.96;100.00;99720.19;5092252;28;20666;-69
2023/05/15 03:52:22;;;;;;;6.47;4.90;;;;;;;8.96;100.00;99713.31;5098699;28;20236;-69
2023/05/15 03:54:49;;;;;;;5.43;4.97;;;;;;;8.91;100.00;99717.88;5072570;28;20229;-69
2023/05/15 03:57:14;;;;;;;5.43;4.93;;;;;;;8.93;100.00;99720.34;5082679;28;20257;-69
2023/05/15 03:59:40;;;;;;;5.30;4.90;;;;;;;8.98;100.00;99726.06;5099687;28;20171;-69
2023/05/15 04:02:05;;;;;;;5.37;4.90;;;;;;;9.03;100.00;99726.66;5116048;28;20261;-69
2023/05/15 04:04:30;;;;;;;5.30;4.90;;;;;;;9.19;100.00;99729.19;5111860;28;20187;-69
2023/05/15 04:06:56;;;;;;;6.63;6.03;;;;;;;8.99;100.00;99725.16;5078465;28;20225;-70
2023/05/15 04:09:21;;;;;;;6.73;6.13;;;;;;;8.97;100.00;99727.81;5111187;28;20210;-69
2023/05/15 04:11:46;;;;;;;8.27;7.13;;;;;;;8.99;100.00;99728.56;5087731;28;20305;-70
2023/05/15 04:14:12;;;;;;;6.20;5.70;;;;;;;9.08;100.00;99728.97;5108880;28;20195;-69
2023/05/15 04:16:37;;;;;;;6.10;5.57;;;;;;;9.10;100.00;99722.81;5073438;28;20627;-70
2023/05/15 04:19:02;;;;;;;5.23;4.67;;;;;;;9.29;100.00;99730.38;5100146;28;20196;-70
2023/05/15 04:21:28;;;;;;;5.32;4.82;;;;;;;9.43;100.00;99726.22;5038695;28;1046921;-69
2023/05/15 04:23:53;;;;;;;6.40;5.37;;;;;;;9.56;100.00;99721.22;5105737;28;20187;-70
2023/05/15 04:26:18;;;;;;;5.40;4.90;;;;;;;9.61;100.00;99724.34;5101454;28;20191;-70
2023/05/15 04:28:43;;;;;;;5.97;4.97;;;;;;;9.68;100.00;99723.06;5084828;28;20195;-69
2023/05/15 04:31:09;;;;;;;7.47;4.70;;;;;;;9.73;100.00;99725.41;5074771;28;20580;-69
2023/05/15 04:33:34;;;;;;;6.13;5.00;;;;;;;9.91;100.00;99733.78;5097031;28;20186;-70
2023/05/15 04:36:00;;;;;;;5.37;4.60;;;;;;;10.06;100.00;99726.91;5087848;28;20181;-69
2023/05/15 04:38:26;;;;;;;6.20;4.70;;;;;;;10.22;100.00;99721.69;5086601;28;20176;-69
2023/05/15 04:40:51;;;;;;;4.77;4.37;;;;;;;10.33;100.00;99725.31;5093471;28;20702;-70
2023/05/15 04:43:16;;;;;;;4.30;3.90;;;;;;;10.50;100.00;99720.91;5117153;28;20229;-70
2023/05/15 04:45:41;;;;;;;6.90;4.57;;;;;;;10.60;100.00;99722.00;5103388;28;21062;-69
2023/05/15 04:48:08;;;;;;;5.63;4.23;;;;;;;10.75;100.00;99719.44;5107600;28;20232;-69
2023/05/15 04:50:34;;;;;;;4.60;4.23;;;;;;;10.90;100.00;99712.50;5065953;28;20697;-70
2023/05/15 04:52:59;;;;;;;4.23;3.93;;;;;;;10.97;100.00;99718.94;5101999;28;20167;-70
2023/05/15 04:55:24;;;;;;;4.37;3.97;;;;;;;10.98;100.00;99710.28;5102495;28;20192;-70
2023/05/15 04:57:50;;;;;;;5.50;3.90;;;;;;;11.07;100.00;99714.84;5105020;28;20614;-70
2023/05/15 05:00:15;;;;;;;5.43;4.20;;;;;;;11.29;100.00;99721.22;5061066;28;20172;-70
2023/05/15 05:02:42;;;;;;;5.30;3.77;;;;;;;11.29;100.00;99718.66;5072126;28;20176;-70
2023/05/15 05:05:08;;;;;;;4.77;3.57;;;;;;;11.59;100.00;99723.56;5067030;28;20209;-70
2023/05/15 05:07:34;;;;;;;4.47;3.97;;;;;;;11.77;100.00;99723.28;5090899;28;20188;-70
2023/05/15 05:09:59;;;;;;;4.23;3.50;;;;;;;11.92;100.00;99719.72;5076303;28;20219;-70
2023/05/15 05:12:24;;;;;;;6.43;3.20;;;;;;;12.15;100.00;99716.56;5046694;28;20295;-70
2023/05/15 05:14:49;;;;;;;5.13;3.50;;;;;;;12.23;100.00;99716.84;5090532;28;20185;-70
2023/05/15 05:17:15;;;;;;;3.73;3.43;;;;;;;12.31;100.00;99709.44;5089820;28;20196;-70
2023/05/15 05:19:40;;;;;;;3.60;3.17;;;;;;;12.40;100.00;99718.28;5069285;28;20180;-70
2023/05/15 05:22:06;;;;;;;3.60;3.30;;;;;;;12.37;100.00;99724.50;5069292;28;20236;-71
2023/05/15 05:24:34;;;;;;;4.17;3.30;;;;;;;12.30;100.00;99717.28;5086738;28;20186;-70
2023/05/15 05:27:00;;;;;;;3.77;3.27;;;;;;;12.32;100.00;99718.81;5090366;28;20284;-70
2023/05/15 05:29:25;;;;;;;4.47;3.23;;;;;;;12.36;100.00;99729.75;5093996;28;20675;-70
2023/05/15 05:31:50;;;;;;;3.47;3.17;;;;;;;12.54;100.00;99722.50;5078300;28;20757;-71
2023/05/15 05:34:16;;;;;;;3.23;2.97;;;;;;;12.77;100.00;99715.75;5064973;28;20181;-71
2023/05/15 05:36:41;;;;;;;3.53;3.23;;;;;;;13.16;100.00;99721.63;5058804;28;20257;-70
2023/05/15 05:39:06;;;;;;;4.13;3.53;;;;;;;13.45;100.00;99721.31;5093903;28;20237;-70
2023/05/15 05:41:32;;;;;;;3.43;3.13;;;;;;;13.82;100.00;99721.19;5083700;28;21011;-70
2023/05/15 05:43:57;;;;;;;6.97;3.23;;;;;;;13.80;100.00;99722.25;5092104;28;20254;-70
2023/05/15 05:46:23;;;;;;;4.20;3.23;;;;;;;14.13;100.00;99718.09;5093052;28;20195;-70
2023/05/15 05:48:48;;;;;;;5.50;3.73;;;;;;;14.44;100.00;99721.75;5099366;28;20712;-69
2023/05/15 05:51:14;;;;;;;5.03;4.17;;;;;;;14.58;100.00;99722.44;5099405;27;20690;-68
2023/05/15 05:53:39;;;;;;;4.60;4.20;;;;;;;14.71;100.00;99722.34;5092671;28;20184;-69
2023/05/15 05:56:05;;;;;;;5.80;5.17;;;;;;;14.78;100.00;99720.91;5092846;28;20180;-69
2023/05/15 05:58:30;;;;;;;7.87;4.53;;;;;;;14.82;100.00;99720.56;5104664;28;20196;-69
2023/05/15 06:00:55;;;;;;;5.40;4.90;;;;;;;15.14;100.00;99714.59;5082839;28;20216;-69
2023/05/15 06:03:21;;;;;;;7.13;6.40;;;;;;;15.23;100.00;99715.63;5083557;28;20187;-68
2023/05/15 06:05:47;;;;;;;8.63;7.17;;;;;;;15.35;100.00;99720.78;5070922;28;20255;-69
2023/05/15 06:08:13;;;;;;;8.80;7.90;;;;;;;15.31;100.00;99717.59;5075761;28;20650;-68
2023/05/15 06:10:38;;;;;;;10.43;8.43;;;;;;;15.42;100.00;99725.31;5084102;28;20361;-70
2023/05/15 06:13:04;;;;;;;11.80;10.60;;;;;;;15.41;100.00;99718.50;5084938;28;20222;-69
2023/05/15 06:15:29;;;;;;;14.57;13.17;;;;;;;15.41;100.00;99722.88;5035060;28;20196;-69
2023/05/15 06:17:55;;;;;;;14.93;13.43;;;;;;;15.55;100.00;99719.16;5080937;28;20310;-68
2023/05/15 06:20:20;;;;;;;14.10;12.63;;;;;;;15.56;100.00;99716.41;5049609;28;20185;-69
2023/05/15 06:22:46;;;;;;;14.60;13.20;;;;;;;15.97;100.00;99725.19;5092788;28;20309;-69
2023/05/15 06:25:13;;;;;;;14.33;12.83;;;;;;;16.24;100.00;99718.63;5111002;28;20176;-69
2023/05/15 06:27:39;;;;;;;15.03;13.43;;;;;;;16.64;100.00;99719.59;5113869;28;20597;-69
2023/05/15 06:30:06;;;;;;;14.53;13.07;;;;;;;17.03;100.00;99711.94;5078382;28;20246;-68
2023/05/15 06:32:32;;;;;;;16.33;14.73;;;;;;;17.85;100.00;99724.59;5107381;28;20224;-68
2023/05/15 06:34:58;;;;;;;16.53;14.93;;;;;;;18.36;100.00;99717.38;5109235;28;20174;-69
2023/05/15 06:37:23;;;;;;;16.90;15.13;;;;;;;19.53;100.00;99718.41;5112555;28;20183;-69
2023/05/15 06:39:48;;;;;;;16.40;14.70;;;;;;;19.43;98.96;99723.72;5113281;28;20180;-69
2023/05/15 06:42:14;;;;;;;14.37;12.97;;;;;;;17.80;100.00;99729.41;5098491;28;20779;-69
2023/05/15 06:44:39;;;;;;;16.03;13.80;;;;;;;18.30;100.00;99725.75;5085441;28;20176;-69
2023/05/15 06:47:05;;;;;;;15.87;14.27;;;;;;;20.35;97.76;99723.34;5110393;28;20214;-70
2023/05/15 06:49:30;;;;;;;14.23;12.87;;;;;;;22.48;82.51;99725.44;5113143;28;20213;-70
2023/05/15 06:51:55;;;;;;;14.17;12.77;;;;;;;22.70;74.10;99716.78;5082850;28;20234;-69
2023/05/15 06:54:20;;;;;;;14.20;12.80;;;;;;;21.46;80.92;99734.59;5091391;28;20210;-70
2023/05/15 06:56:46;;;;;;;15.40;13.80;;;;;;;21.01;86.04;99734.06;5066331;28;20188;-70
2023/05/15 06:59:11;;;;;;;13.77;12.37;;;;;;;20.27;90.29;99729.34;5090933;28;20188;-70
2023/05/15 07:01:37;;;;;;;15.33;13.73;;;;;;;20.82;89.09;99742.19;5077878;28;20222;-69
2023/05/15 07:04:02;;;;;;;16.97;15.27;;;;;;;20.25;94.92;99733.91;5092644;28;20188;-69
2023/05/15 07:06:30;;;;;;;16.83;15.13;;;;;;;19.19;96.95;99740.78;5112272;28;20191;-69
2023/05/15 07:08:55;;;;;;;16.63;15.13;;;;;;;18.85;99.17;99740.56;5094424;28;20191;-69
2023/05/15 07:11:20;;;;;;;17.53;15.87;;;;;;;18.67;100.00;99732.72;5084289;28;20270;-69
2023/05/15 07:13:46;;;;;;;18.97;16.80;;;;;;;18.32;100.00;99731.63;5104668;28;20198;-69
2023/05/15 07:16:11;;;;;;;17.10;15.50;;;;;;;18.63;100.00;99733.97;5101154;28;20231;-68
2023/05/15 07:18:36;;;;;;;21.43;16.00;;;;;;;19.38;100.00;99735.59;5080343;28;20624;-68
2023/05/15 07:21:02;;;;;;;17.13;15.40;;;;;;;20.26;96.00;99739.97;5092774;28;20227;-69
2023/05/15 07:23:27;;;;;;;16.67;14.97;;;;;;;20.61;94.36;99735.53;5100001;28;21013;-68
2023/05/15 07:25:55;;;;;;;15.07;13.57;;;;;;;20.30;92.13;99739.50;5070426;28;20269;-69
2023/05/15 07:28:21;;;;;;;15.90;14.30;;;;;;;21.54;86.93;99724.09;5090639;28;20204;-69
2023/05/15 07:30:47;;;;;;;14.47;13.03;;;;;;;21.29;83.16;99723.28;5060859;28;20234;-69
2023/05/15 07:33:12;;;;;;;16.93;14.37;;;;;;;22.68;76.17;99733.69;5099703;28;20188;-68
2023/05/15 07:35:38;;;;;;;16.53;14.90;;;;;;;22.31;73.40;99737.75;5091709;28;20669;-69
2023/05/15 07:38:03;;;;;;;15.30;13.50;;;;;;;21.94;79.18;99739.94;5073509;28;20634;-69
2023/05/15 07:40:28;;;;;;;15.40;13.90;;;;;;;21.79;81.83;99739.00;5080933;28;20574;-69
2023/05/15 07:42:54;;;;;;;13.40;12.10;;;;;;;21.10;85.60;99740.13;5082907;28;20171;-68
2023/05/15 07:45:19;;;;;;;14.63;12.50;;;;;;;21.55;83.51;99730.16;5091781;28;20650;-69
2023/05/15 07:47:45;;;;;;;14.20;12.47;;;;;;;21.77;84.63;99737.38;5091936;28;20667;-68
2023/05/15 07:50:11;;;;;;;13.63;12.23;;;;;;;22.23;74.99;99736.78;5059566;28;20211;-68
2023/05/15 07:52:37;;;;;;;14.00;12.63;;;;;;;22.80;75.88;99737.56;5097416;28;20172;-69
2023/05/15 07:55:03;;;;;;;15.97;14.23;;;;;;;23.60;63.84;99732.91;5091565;28;20558;-68
2023/05/15 07:57:28;;;;;;;13.70;12.30;;;;;;;24.41;57.37;99734.06;5078230;28;20706;-68
2023/05/15 07:59:54;;;;;;;15.45;11.80;;;;;;;26.03;48.42;99737.22;5092045;28;20184;-69
2023/05/15 08:02:20;;;;;;;12.95;11.75;;;;;;;27.05;45.85;99730.34;5088441;28;20296;-68
2023/05/15 08:04:45;;;;;;;13.50;12.25;;;;;;;27.01;44.87;99734.38;5091893;28;20635;-68
2023/05/15 08:07:12;;;;;;;13.90;12.68;;;;;;;26.13;43.84;99742.16;5091197;28;20183;-68
2023/05/15 08:09:38;;;;;;;14.38;12.88;;;;;;;24.34;49.96;99737.41;5092052;28;20200;-68
2023/05/15 08:12:20;;;;;;;14.38;12.88;;;;;;;23.14;62.63;99733.72;5088481;28;20647;-69
2023/05/15 08:14:53;;;;;;;17.63;16.00;;;;;;;21.60;74.82;99733.94;5067175;28;20216;-68
2023/05/15 08:17:19;;;;;;;16.80;15.10;;;;;;;22.12;82.83;99723.25;5068795;28;20651;-69
2023/05/15 08:19:45;;;;;;;15.55;14.13;;;;;;;24.58;60.90;99732.03;5074375;28;20255;-65
2023/05/15 08:22:10;;;;;;;17.55;15.75;;;;;;;26.09;50.40;99726.72;5068290;28;20227;-64
2023/05/15 08:24:36;;;;;;;19.05;15.52;;;;;;;26.31;48.73;99729.28;5086919;28;20180;-64
2023/05/15 08:27:04;;;;;;;16.05;14.32;;;;;;;27.11;46.82;99735.81;5070624;28;20188;-63
2023/05/15 08:29:29;;;;;;;18.42;16.30;;;;;;;26.34;49.01;99726.25;5086355;28;20207;-63
2023/05/15 08:31:54;;;;;;;18.80;16.77;;;;;;;26.60;49.18;99731.81;5094597;28;20321;-64
2023/05/15 08:34:20;;;;;;;19.88;17.90;;;;;;;26.87;49.03;99736.19;5094344;28;20200;-64
2023/05/15 08:36:46;;;;;;;19.50;17.63;;;;;;;26.60;47.52;99737.09;5091517;28;20187;-63
2023/05/15 08:39:12;;;;;;;17.17;15.60;;;;;;;25.52;52.29;99733.03;5091990;28;20184;-64
2023/05/15 08:41:46;;;;;;;18.40;16.58;;;;;;;24.75;59.21;99741.38;5085496;28;20242;-64
2023/05/15 08:44:12;;;;;;;20.00;18.00;;;;;;;23.81;58.55;99731.41;5095492;28;20179;-65
2023/05/15 08:46:38;;;;;;;19.23;17.30;;;;;;;23.65;66.62;99724.50;5088969;28;20182;-64
2023/05/15 08:49:18;;;;;;;21.33;19.10;;;;;;;23.61;69.06;99720.59;5095517;28;20196;-63
2023/05/15 08:51:43;;;;;;;24.17;21.67;;;;;;;22.68;77.47;99721.38;5089746;28;20227;-65
2023/05/15 08:54:10;;;;;;;19.42;17.48;;;;;;;22.17;80.96;99724.34;5097856;28;20253;-66
2023/05/15 08:56:36;;;;;;;22.35;19.58;;;;;;;22.13;84.22;99725.69;5085044;28;20249;-65
2023/05/15 08:59:03;;;;;;;18.33;16.42;;;;;;;23.62;70.37;99717.78;5073214;28;20234;-64
2023/05/15 09:01:29;;;;;;;19.45;17.52;;;;;;;24.93;60.12;99721.72;5062380;28;20691;-64
2023/05/15 09:03:54;;;;;;;20.92;18.73;;;;;;;26.71;48.98;99724.13;5087987;28;20633;-65
2023/05/15 09:06:21;;;;;;;20.35;18.00;;;;;;;27.80;44.75;99723.25;5094802;28;20180;-65
2023/05/15 09:08:47;;;;;;;19.00;17.08;;;;;;;29.05;44.19;99723.94;5092274;28;20619;-64
2023/05/15 09:11:14;;;;;;;18.58;16.67;;;;;;;29.53;39.68;99727.88;5084577;28;20348;-64
2023/05/15 09:13:39;;;;;;;20.73;18.63;;;;;;;27.21;43.27;99723.03;5078691;28;20201;-64
2023/05/15 09:16:06;;;;;;;19.55;17.67;;;;;;;26.32;47.79;99723.00;5090826;28;20183;-66
2023/05/15 09:18:31;;;;;;;22.27;17.80;;;;;;;24.88;56.03;99724.94;5094842;28;20184;-64
2023/05/15 09:21:24;;;;;;;18.83;16.90;;;;;;;24.43;60.35;99726.81;5091088;28;20689;-63
2023/05/15 09:23:49;;;;;;;18.08;16.30;;;;;;;24.11;65.03;99729.66;5079586;28;20662;-64
2023/05/15 09:26:15;;;;;;;21.20;17.73;;;;;;;23.15;74.15;99726.69;5094270;28;20177;-64
2023/05/15 09:28:40;;;;;;;19.73;17.90;;;;;;;23.18;73.71;99723.72;5100180;28;20538;-63
2023/05/15 09:31:06;;;;;;;21.50;19.27;;;;;;;22.54;74.95;99722.94;5088018;27;20212;-63
2023/05/15 09:33:40;;;;;;;20.73;18.63;;;;;;;22.13;79.90;99717.81;5096886;28;20183;-63
2023/05/15 09:36:07;;;;;;;26.63;20.40;;;;;;;21.69;84.46;99713.00;5096748;28;20199;-63
2023/05/15 09:38:33;;;;;;;20.57;18.50;;;;;;;21.81;84.97;99719.53;5105789;28;20188;-64
2023/05/15 09:41:03;;;;;;;19.87;17.77;;;;;;;21.41;84.92;99701.06;5084224;27;20307;-65
2023/05/15 09:43:32;;;;;;;23.10;18.97;;;;;;;20.78;89.72;99713.72;5097685;28;20186;-64
2023/05/15 09:45:58;;;;;;;21.07;18.83;;;;;;;20.40;94.77;99708.00;5093332;28;20197;-63
2023/05/15 09:48:23;;;;;;;21.23;18.50;;;;;;;20.43;94.33;99705.09;5114755;28;20219;-64
2023/05/15 09:50:48;;;;;;;20.73;18.33;;;;;;;20.73;93.20;99702.13;5083882;28;20223;-64
2023/05/15 09:53:14;;;;;;;20.47;18.27;;;;;;;21.35;92.70;99693.06;5090305;28;20206;-64
2023/05/15 09:55:41;;;;;;;20.00;17.20;;;;;;;22.42;86.12;99692.03;5114457;28;20210;-64
2023/05/15 09:58:11;;;;;;;21.57;17.57;;;;;;;23.92;71.11;99698.66;5105627;28;20219;-63
2023/05/15 10:00:39;;;;;;;20.33;17.30;;;;;;;23.99;65.64;99696.97;5080676;28;20299;-63
2023/05/15 10:03:05;;;;;;;19.30;17.25;;;;;;;23.71;70.82;99697.53;5071771;28;20200;-62
2023/05/15 10:05:31;;;;;;;18.65;16.67;;;;;;;23.28;76.21;99692.00;5071594;28;20185;-63
2023/05/15 10:07:57;;;;;;;19.30;17.13;;;;;;;23.77;68.51;99696.00;5071588;28;20200;-63
2023/05/15 10:10:24;;;;;;;19.40;17.45;;;;;;;23.68;71.28;99693.44;5043025;28;20233;-63
2023/05/15 10:12:51;;;;;;;20.23;18.05;;;;;;;23.45;76.38;99698.75;5077564;28;20235;-63
2023/05/15 10:15:18;;;;;;;19.25;16.30;;;;;;;23.62;71.37;99691.53;5106486;28;20256;-63
2023/05/15 10:17:46;;;;;;;19.23;17.15;;;;;;;23.83;69.07;99693.47;5107551;28;20199;-64
2023/05/15 10:20:12;;;;;;;19.48;16.73;;;;;;;24.87;63.38;99694.38;5091583;28;20200;-63
2023/05/15 10:22:41;;;;;;;20.48;15.77;;;;;;;25.19;55.83;99681.69;5087817;28;20232;-63
2023/05/15 10:25:27;;;;;;;18.60;15.50;;;;;;;24.76;58.00;99685.16;5090088;28;20188;-65
2023/05/15 10:27:53;;;;;;;17.30;15.50;;;;;;;24.50;62.89;99683.81;5076152;28;20187;-63
2023/05/15 10:30:20;;;;;;;16.63;14.93;;;;;;;24.62;63.74;99680.72;5083473;28;20196;-64
2023/05/15 10:32:47;;;;;;;17.60;15.73;;;;;;;23.88;64.95;99679.78;5093148;28;20725;-63
2023/05/15 10:35:13;;;;;;;17.42;15.63;;;;;;;23.85;64.80;99674.88;5093285;28;20211;-63
2023/05/15 10:37:38;;;;;;;16.92;13.90;;;;;;;24.46;59.77;99676.50;5095547;28;20184;-62
2023/05/15 10:40:06;;;;;;;16.15;14.38;;;;;;;25.06;54.01;99666.59;5099504;28;20179;-63
2023/05/15 10:42:33;;;;;;;15.13;13.25;;;;;;;24.85;55.34;99667.44;5099730;28;20259;-63
2023/05/15 10:45:01;;;;;;;16.08;14.25;;;;;;;24.47;57.86;99667.59;5101667;28;20186;-64
2023/05/15 10:47:28;;;;;;;16.08;14.38;;;;;;;23.54;66.68;99654.84;5088271;28;20175;-63
2023/05/15 10:49:53;;;;;;;15.07;13.18;;;;;;;23.44;64.76;99649.06;5113187;28;20198;-63
2023/05/15 10:52:19;;;;;;;17.08;15.32;;;;;;;23.09;71.55;99652.13;5096406;28;20223;-63
2023/05/15 10:54:44;;;;;;;16.90;15.10;;;;;;;22.74;78.19;99638.63;5093627;28;20653;-62
2023/05/15 10:57:10;;;;;;;16.92;15.20;;;;;;;22.54;77.97;99638.25;5108111;28;20183;-63
2023/05/15 10:59:36;;;;;;;17.05;15.43;;;;;;;21.96;80.92;99638.50;5089365;28;20176;-63
2023/05/15 11:02:22;;;;;;;18.13;15.50;;;;;;;21.41;83.39;99640.06;5086323;28;20671;-65
2023/05/15 11:04:52;;;;;;;15.80;14.10;;;;;;;20.71;83.08;99641.31;5107512;28;20187;-64
2023/05/15 11:07:17;;;;;;;17.00;15.27;;;;;;;20.62;85.93;99630.84;5111062;28;20175;-64
2023/05/15 11:09:43;;;;;;;16.73;14.97;;;;;;;20.62;88.34;99630.84;5101988;28;20205;-63
2023/05/15 11:12:10;;;;;;;16.03;13.90;;;;;;;20.50;88.49;99629.50;5080247;28;20224;-64
2023/05/15 11:14:37;;;;;;;16.23;14.60;;;;;;;21.01;88.59;99624.25;5102658;28;20275;-63
2023/05/15 11:17:04;;;;;;;18.60;14.17;;;;;;;21.29;81.74;99621.28;5080494;28;20410;-65
2023/05/15 11:19:32;;;;;;;18.63;14.17;;;;;;;21.59;81.12;99611.09;5074649;28;20500;-64